VEJS/IXW METAR and TAF weather

Enter ICAO airport designator
Station Type Date Time Source
VEJS METAR 2019/04/25 12:00 UTC NOAA

VEJS 251200Z 19004KT 3500 HZ NSC 36/22 Q1005


Station Type Date Time Source
VEJS Decoded METAR 2019/04/25 12:00 UTC NOAA

Jamshedpur, India (VEJS) 22-49N 086-11E 142M
Apr 25, 2019 - 08:00 AM EDT / 2019.04.25 1200 UTC
Wind: from the S (190 degrees) at 5 MPH (4 KT):0
Visibility: 2 mile(s):0
Weather: haze
Temperature: 96 F (36 C)
Heat index: 103.5 F (39.7 C):1
Dew Point: 71 F (22 C)
Relative Humidity: 44%
Pressure (altimeter): 29.68 in. Hg (1005 hPa)
ob: VEJS 251200Z 19004KT 3500 HZ NSC 36/22 Q1005
cycle: 12

Station Type Date Time Source
VEJS TAF 2009/11/01 09:00 UTC NOAA

TAF VEJS 010900Z 0112/0121 36004KT 2500 HZ FEW020 SCT025 SCT100
BECMG 0116/0118 00000KT 2000 HZ FEW018 SCT
BECMG 0119/0121 00000KT 1600 BR

Example: see airport list